createdAt,value
2022-12-23T00:00:37.999Z,93.13
2022-12-23T00:03:04.904Z,90.57
2022-12-23T00:05:37.551Z,88.63
2022-12-23T00:08:05.010Z,95.37
2022-12-23T00:10:31.764Z,88.03
2022-12-23T00:13:17.296Z,100.88
2022-12-23T00:15:44.098Z,102.18
2022-12-23T00:18:10.736Z,105.05
2022-12-23T00:20:37.390Z,102.82
2022-12-23T00:23:07.134Z,97.70
2022-12-23T00:25:41.018Z,105.07
2022-12-23T00:28:11.535Z,108.35
2022-12-23T00:30:48.557Z,102.90
2022-12-23T00:33:16.107Z,109.45
2022-12-23T00:35:43.847Z,107.00
2022-12-23T00:38:10.589Z,110.43
2022-12-23T00:40:55.856Z,108.38
2022-12-23T00:43:22.605Z,97.05
2022-12-23T00:45:49.464Z,102.28
2022-12-23T00:48:35.007Z,94.40
2022-12-23T00:51:02.292Z,89.65
2022-12-23T00:53:29.183Z,95.57
2022-12-23T00:55:55.891Z,89.85
2022-12-23T00:58:22.545Z,86.38
2022-12-23T01:01:07.831Z,87.25
2022-12-23T01:03:53.276Z,93.90
2022-12-23T01:06:20.376Z,78.97
2022-12-23T01:08:47.389Z,88.45
2022-12-23T01:11:14.046Z,91.00
2022-12-23T01:13:40.672Z,89.90
2022-12-23T01:16:14.974Z,86.55
2022-12-23T01:18:43.765Z,92.50
2022-12-23T01:21:10.799Z,86.47
2022-12-23T01:26:18.141Z,92.03
2022-12-23T01:28:44.901Z,86.47
2022-12-23T01:31:11.800Z,89.95
2022-12-23T01:33:39.413Z,92.05
2022-12-23T01:36:07.330Z,89.10
2022-12-23T01:38:34.479Z,87.13
2022-12-23T01:41:01.164Z,92.10
2022-12-23T01:43:46.484Z,86.85
2022-12-23T01:46:14.960Z,84.35
2022-12-23T01:48:44.408Z,86.57
2022-12-23T01:51:14.255Z,84.97
2022-12-23T01:53:43.638Z,106.30
2022-12-23T01:56:13.334Z,92.55
2022-12-23T01:58:42.599Z,95.78
2022-12-23T02:01:28.750Z,85.82
2022-12-23T02:04:00.759Z,80.82
2022-12-23T02:06:46.306Z,89.20
2022-12-23T02:09:19.061Z,90.55
2022-12-23T02:11:56.613Z,99.82
2022-12-23T02:14:41.904Z,88.63
2022-12-23T02:17:24.727Z,99.47
2022-12-23T02:20:09.978Z,88.97
2022-12-23T02:22:42.702Z,95.55
2022-12-23T02:25:19.703Z,91.05
2022-12-23T02:27:46.557Z,94.55
2022-12-23T02:30:19.246Z,98.30
2022-12-23T02:32:46.016Z,95.53
2022-12-23T02:35:25.035Z,91.43
2022-12-23T02:38:21.484Z,92.50
2022-12-23T02:41:00.508Z,102.63
2022-12-23T02:43:39.513Z,97.00
2022-12-23T02:46:13.344Z,90.13
2022-12-23T02:48:49.689Z,92.93
2022-12-23T02:51:17.034Z,94.32
2022-12-23T02:53:49.225Z,96.40
2022-12-23T02:56:17.706Z,99.13
2022-12-23T02:58:47.537Z,95.10
2022-12-23T03:01:16.090Z,96.55
2022-12-23T03:03:44.699Z,98.18
2022-12-23T03:06:34.439Z,95.82
2022-12-23T03:09:01.258Z,99.32
2022-12-23T03:11:40.295Z,105.25
2022-12-23T03:14:16.254Z,98.43
2022-12-23T03:17:01.610Z,95.85
2022-12-23T03:19:32.019Z,105.30
2022-12-23T03:22:25.119Z,99.82
2022-12-23T03:24:58.983Z,90.85
2022-12-23T03:29:52.756Z,93.47
2022-12-23T03:32:19.900Z,101.38
2022-12-23T03:34:48.258Z,97.70
2022-12-23T03:37:16.433Z,100.32
2022-12-23T03:39:48.241Z,99.90
2022-12-23T03:42:24.007Z,102.80
2022-12-23T03:45:19.221Z,104.35
2022-12-23T03:47:47.031Z,110.63
2022-12-23T03:50:16.952Z,117.93
2022-12-23T03:52:51.689Z,112.35
2022-12-23T03:55:22.047Z,110.45
2022-12-23T03:58:01.196Z,105.07
2022-12-23T04:00:28.931Z,100.97
2022-12-23T04:03:05.495Z,103.00
2022-12-23T04:05:32.204Z,103.22
2022-12-23T04:08:05.244Z,99.88
2022-12-23T04:10:31.959Z,100.27
2022-12-23T04:12:58.962Z,104.93
2022-12-23T04:15:27.180Z,96.95
2022-12-23T04:17:54.883Z,94.97
2022-12-23T04:20:21.641Z,89.22
2022-12-23T04:22:48.788Z,101.10
2022-12-23T04:25:16.274Z,98.70
2022-12-23T04:27:43.771Z,101.93
2022-12-23T04:30:11.475Z,110.60
2022-12-23T04:32:38.531Z,111.50
2022-12-23T04:35:05.611Z,107.63
2022-12-23T04:37:32.311Z,103.63
2022-12-23T04:39:59.026Z,102.15
2022-12-23T04:42:26.206Z,102.70
2022-12-23T04:44:52.917Z,104.38
2022-12-23T04:47:19.797Z,102.10
2022-12-23T04:49:47.014Z,101.22
2022-12-23T04:52:14.024Z,94.18
2022-12-23T04:54:46.048Z,100.43
2022-12-23T04:57:13.432Z,99.93
2022-12-23T04:59:40.462Z,103.07
2022-12-23T05:02:08.133Z,99.95
2022-12-23T05:04:35.067Z,104.50
2022-12-23T05:07:01.978Z,114.28
2022-12-23T05:09:28.735Z,102.28
2022-12-23T05:11:57.833Z,114.20
2022-12-23T05:14:24.714Z,111.13
2022-12-23T05:16:51.717Z,108.00
2022-12-23T05:19:18.452Z,101.75
2022-12-23T05:21:45.342Z,107.50
2022-12-23T05:24:12.148Z,106.03
2022-12-23T05:26:38.849Z,101.55
2022-12-23T05:29:06.241Z,108.18
2022-12-23T05:31:33.730Z,100.72
2022-12-23T05:34:06.057Z,125.35
2022-12-23T05:36:33.221Z,99.43
2022-12-23T05:39:00.004Z,101.50
2022-12-23T05:41:26.707Z,111.18
2022-12-23T05:43:53.514Z,105.35
2022-12-23T05:46:26.198Z,103.47
2022-12-23T05:48:53.644Z,106.45
2022-12-23T05:51:20.781Z,111.57
2022-12-23T05:53:47.598Z,105.80
2022-12-23T05:56:14.256Z,105.70
2022-12-23T05:58:41.329Z,102.82
2022-12-23T06:01:08.669Z,117.85
2022-12-23T06:03:35.449Z,104.82
2022-12-23T06:06:02.297Z,103.25
2022-12-23T06:08:29.071Z,101.88
2022-12-23T06:10:55.847Z,99.60
2022-12-23T06:13:22.944Z,96.03
2022-12-23T06:15:50.280Z,107.03
2022-12-23T06:18:17.169Z,98.40
2022-12-23T06:20:47.674Z,96.55
2022-12-23T06:23:14.560Z,98.80
2022-12-23T06:25:41.287Z,95.57
2022-12-23T06:28:08.198Z,95.65
2022-12-23T06:30:35.082Z,97.78
2022-12-23T06:33:01.887Z,99.43
2022-12-23T06:35:28.713Z,98.45
2022-12-23T06:37:55.464Z,111.30
2022-12-23T06:40:22.216Z,98.53
2022-12-23T06:42:49.291Z,111.45
2022-12-23T06:45:16.601Z,111.50
2022-12-23T06:47:43.546Z,100.70
2022-12-23T06:50:11.128Z,102.25
2022-12-23T06:52:38.710Z,107.95
2022-12-23T06:55:06.036Z,104.03
2022-12-23T06:57:33.384Z,109.18
2022-12-23T07:00:00.983Z,96.30
2022-12-23T07:02:27.975Z,108.32
2022-12-23T07:04:54.915Z,94.43
2022-12-23T07:07:21.745Z,109.28
2022-12-23T07:09:48.535Z,99.35
2022-12-23T07:12:15.395Z,91.50
2022-12-23T07:14:42.345Z,92.07
2022-12-23T07:17:09.060Z,99.18
2022-12-23T07:19:36.113Z,100.75
2022-12-23T07:22:03.326Z,94.78
2022-12-23T07:24:30.591Z,100.75
2022-12-23T07:26:57.687Z,83.53
2022-12-23T07:29:24.604Z,92.57
2022-12-23T07:31:51.462Z,90.43
2022-12-23T07:34:18.172Z,104.28
2022-12-23T07:36:44.902Z,87.45
2022-12-23T07:39:11.808Z,93.85
2022-12-23T07:41:39.165Z,90.85
2022-12-23T07:44:07.474Z,99.18
2022-12-23T07:46:35.072Z,92.65
2022-12-23T07:49:02.100Z,85.22
2022-12-23T07:51:29.025Z,90.53
2022-12-23T07:53:56.207Z,88.20
2022-12-23T07:56:23.587Z,98.68
2022-12-23T07:58:51.753Z,97.10
2022-12-23T08:01:19.213Z,84.40
2022-12-23T08:03:46.368Z,96.47
2022-12-23T08:06:13.958Z,87.95
2022-12-23T08:08:41.998Z,91.05
2022-12-23T08:11:09.655Z,101.85
2022-12-23T08:13:37.436Z,104.70
2022-12-23T08:16:05.000Z,114.85
2022-12-23T08:18:33.147Z,98.45
2022-12-23T08:21:04.530Z,103.82
2022-12-23T08:23:32.352Z,104.45
2022-12-23T08:26:03.578Z,103.50
2022-12-23T08:28:30.680Z,106.22
2022-12-23T08:31:03.924Z,115.47
2022-12-23T08:33:30.679Z,99.22
2022-12-23T08:35:57.319Z,105.60
2022-12-23T08:38:24.286Z,102.03
2022-12-23T08:40:52.094Z,121.03
2022-12-23T08:43:19.907Z,106.65
2022-12-23T08:45:47.650Z,99.53
2022-12-23T08:48:14.848Z,100.28
2022-12-23T08:50:43.339Z,96.70
2022-12-23T08:53:10.996Z,95.30
2022-12-23T08:55:41.934Z,95.35
2022-12-23T08:58:09.732Z,97.35
2022-12-23T09:00:37.252Z,92.20
2022-12-23T09:03:04.215Z,86.40
2022-12-23T09:05:31.621Z,93.88
2022-12-23T09:07:58.582Z,95.00
2022-12-23T09:10:25.578Z,95.97
2022-12-23T09:12:52.423Z,103.85
2022-12-23T09:15:19.338Z,98.72
2022-12-23T09:17:46.133Z,94.70
2022-12-23T09:20:13.654Z,93.82
2022-12-23T09:22:42.187Z,108.07
2022-12-23T09:25:11.033Z,107.15
2022-12-23T09:27:38.031Z,105.22
2022-12-23T09:30:04.975Z,108.88
2022-12-23T09:32:31.833Z,114.22
2022-12-23T09:34:58.584Z,117.43
2022-12-23T09:37:25.455Z,96.72
2022-12-23T09:39:52.315Z,96.22
2022-12-23T09:42:28.447Z,98.10
2022-12-23T09:45:10.517Z,87.60
2022-12-23T09:47:37.869Z,84.82
2022-12-23T09:50:10.919Z,81.78
2022-12-23T09:52:43.040Z,89.05
2022-12-23T09:55:11.237Z,92.90
2022-12-23T09:57:42.027Z,89.95
2022-12-23T10:00:15.872Z,88.75
2022-12-23T10:05:32.381Z,95.53
2022-12-23T10:08:02.108Z,90.40
2022-12-23T10:10:52.845Z,84.45
2022-12-23T10:13:25.679Z,93.88
2022-12-23T10:15:53.552Z,88.25
2022-12-23T10:18:25.852Z,92.07
2022-12-23T10:21:01.645Z,93.10
2022-12-23T10:23:32.991Z,108.65
2022-12-23T10:26:00.700Z,127.18
2022-12-23T10:28:29.741Z,103.22
2022-12-23T10:31:39.224Z,120.88
2022-12-23T10:34:00.512Z,111.82
2022-12-23T10:36:39.646Z,117.22
2022-12-23T10:39:14.891Z,125.13
2022-12-23T10:42:00.307Z,120.22
2022-12-23T10:44:33.830Z,109.57
2022-12-23T10:47:09.508Z,127.57
2022-12-23T10:49:36.279Z,110.82
2022-12-23T10:52:10.984Z,119.28
2022-12-23T10:54:46.408Z,116.35
2022-12-23T10:57:15.441Z,117.97
2022-12-23T10:59:42.879Z,127.60
2022-12-23T11:02:13.146Z,112.65
2022-12-23T11:04:41.639Z,117.72
2022-12-23T11:07:42.901Z,108.40
2022-12-23T11:10:01.978Z,106.97
2022-12-23T11:12:42.853Z,113.55
2022-12-23T11:15:28.169Z,111.35
2022-12-23T11:18:16.783Z,108.43
2022-12-23T11:20:45.058Z,107.82
2022-12-23T11:23:28.925Z,107.53
2022-12-23T11:26:00.655Z,114.75
2022-12-23T11:28:27.995Z,113.45
2022-12-23T11:31:09.558Z,109.57
2022-12-23T11:33:38.725Z,119.65
2022-12-23T11:36:05.838Z,124.20
2022-12-23T11:38:33.696Z,106.63
2022-12-23T11:41:00.611Z,107.47
2022-12-23T11:43:28.067Z,110.68
2022-12-23T11:46:19.159Z,101.45
2022-12-23T11:48:51.336Z,102.47
2022-12-23T11:51:25.278Z,110.25
2022-12-23T11:53:58.936Z,105.60
2022-12-23T11:59:05.756Z,104.35
2022-12-23T12:01:32.603Z,100.28
2022-12-23T12:03:59.402Z,103.15
2022-12-23T12:06:26.588Z,103.32
2022-12-23T12:08:55.542Z,110.35
2022-12-23T12:11:26.203Z,99.28
2022-12-23T12:14:13.085Z,96.63
2022-12-23T12:17:00.829Z,95.90
2022-12-23T12:19:33.577Z,108.90
2022-12-23T12:22:03.416Z,108.72
2022-12-23T12:24:33.256Z,102.47
2022-12-23T12:27:05.092Z,102.95
2022-12-23T12:29:58.450Z,100.80
2022-12-23T12:34:59.927Z,105.05
2022-12-23T12:37:31.518Z,104.43
2022-12-23T12:40:05.017Z,98.18
2022-12-23T12:42:42.182Z,114.00
2022-12-23T12:45:22.313Z,105.75
2022-12-23T12:48:12.811Z,93.90
2022-12-23T12:50:48.507Z,102.85
2022-12-23T12:53:18.851Z,107.53
2022-12-23T12:55:49.093Z,98.68
2022-12-23T12:58:19.241Z,97.72
2022-12-23T13:01:04.840Z,100.65
2022-12-23T13:03:49.651Z,101.53
2022-12-23T13:06:22.456Z,105.93
2022-12-23T13:08:55.192Z,103.70
2022-12-23T13:11:28.393Z,100.03
2022-12-23T13:13:55.734Z,94.20
2022-12-23T13:16:22.797Z,106.93
2022-12-23T13:19:10.604Z,101.65
2022-12-23T13:21:41.770Z,103.65
2022-12-23T13:24:11.442Z,98.75
2022-12-23T13:27:01.181Z,110.88
2022-12-23T13:29:40.270Z,102.28
2022-12-23T13:32:19.038Z,103.10
2022-12-23T13:34:51.881Z,105.13
2022-12-23T13:37:42.145Z,111.25
2022-12-23T13:40:29.616Z,114.28
2022-12-23T13:42:59.904Z,104.43
2022-12-23T13:45:29.792Z,118.72
2022-12-23T13:48:10.762Z,105.88
2022-12-23T13:50:43.530Z,116.57
2022-12-23T13:53:37.514Z,109.53
2022-12-23T13:56:22.688Z,106.53
2022-12-23T13:58:50.544Z,103.78
2022-12-23T14:01:17.830Z,100.10
2022-12-23T14:03:46.172Z,110.50
2022-12-23T14:06:18.702Z,103.00
2022-12-23T14:08:47.557Z,112.07
2022-12-23T14:11:18.722Z,92.32
2022-12-23T14:13:52.029Z,97.57
2022-12-23T14:16:18.861Z,100.05
2022-12-23T14:19:01.111Z,95.72
2022-12-23T14:21:38.949Z,99.80
2022-12-23T14:24:24.297Z,90.00
2022-12-23T14:26:50.891Z,94.57
2022-12-23T14:29:43.829Z,90.82
2022-12-23T14:32:22.062Z,96.05
2022-12-23T14:35:18.170Z,99.20
2022-12-23T14:38:04.745Z,99.43
2022-12-23T14:40:37.613Z,101.18
2022-12-23T14:43:23.077Z,98.50
2022-12-23T14:45:51.137Z,98.43
2022-12-23T14:48:37.119Z,98.07
2022-12-23T14:51:04.400Z,122.88
2022-12-23T14:53:32.219Z,101.38
2022-12-23T14:56:08.012Z,102.75
2022-12-23T14:59:07.475Z,102.40
2022-12-23T15:01:41.731Z,105.43
2022-12-23T15:04:14.124Z,89.90
2022-12-23T15:06:43.104Z,101.82
2022-12-23T15:09:18.427Z,99.93
2022-12-23T15:11:45.410Z,95.18
2022-12-23T15:14:18.610Z,110.55
2022-12-23T15:16:46.594Z,101.50
2022-12-23T15:19:24.935Z,100.15
2022-12-23T15:21:59.646Z,102.30
2022-12-23T15:24:29.969Z,101.72
2022-12-23T15:27:25.112Z,98.05
2022-12-23T15:29:45.232Z,98.03
2022-12-23T15:32:12.022Z,95.95
2022-12-23T15:34:38.772Z,96.95
2022-12-23T15:37:10.249Z,97.88
2022-12-23T15:39:39.357Z,105.68
2022-12-23T15:42:19.954Z,113.60
2022-12-23T15:44:46.700Z,111.25
2022-12-23T15:47:23.122Z,111.32
2022-12-23T15:49:49.829Z,122.57
2022-12-23T15:52:20.437Z,113.15
2022-12-23T15:54:58.888Z,128.95
2022-12-23T15:57:27.687Z,124.65
2022-12-23T15:59:55.175Z,129.90
2022-12-23T16:02:59.777Z,118.57
2022-12-23T16:05:28.624Z,130.55
2022-12-23T16:08:13.977Z,116.05
2022-12-23T16:10:41.265Z,131.23
2022-12-23T16:13:19.171Z,125.88
2022-12-23T16:15:46.317Z,126.93
2022-12-23T16:18:13.466Z,125.97
2022-12-23T16:20:42.252Z,128.52
2022-12-23T16:23:10.779Z,127.97
2022-12-23T16:25:37.725Z,131.15
2022-12-23T16:28:11.463Z,129.48
2022-12-23T16:30:39.333Z,120.65
2022-12-23T16:33:07.244Z,127.72
2022-12-23T16:35:41.783Z,133.05
2022-12-23T16:38:16.535Z,137.80
2022-12-23T16:40:44.527Z,135.50
2022-12-23T16:43:11.699Z,147.10
2022-12-23T16:45:38.772Z,144.18
2022-12-23T16:48:09.426Z,150.82
2022-12-23T16:50:36.457Z,151.13
2022-12-23T16:53:04.021Z,143.45
2022-12-23T16:55:30.728Z,147.20
2022-12-23T16:57:57.381Z,153.20
2022-12-23T17:00:24.061Z,170.73
2022-12-23T17:02:50.834Z,147.57
2022-12-23T17:05:19.027Z,155.77
2022-12-23T17:07:46.259Z,149.52
2022-12-23T17:10:14.593Z,149.65
2022-12-23T17:12:42.267Z,150.93
2022-12-23T17:15:15.547Z,151.73
2022-12-23T17:17:42.192Z,145.80
2022-12-23T17:20:10.219Z,140.07
2022-12-23T17:22:37.931Z,145.07
2022-12-23T17:25:05.089Z,145.55
2022-12-23T17:27:31.848Z,156.77
2022-12-23T17:29:58.647Z,154.63
2022-12-23T17:32:28.238Z,151.27
2022-12-23T17:34:55.130Z,144.90
2022-12-23T17:37:22.772Z,135.90
2022-12-23T17:39:49.365Z,141.73
2022-12-23T17:42:23.277Z,133.30
2022-12-23T17:44:51.796Z,132.32
2022-12-23T17:47:20.171Z,136.23
2022-12-23T17:49:47.453Z,136.13
2022-12-23T17:52:21.281Z,142.40
2022-12-23T17:54:49.061Z,140.38
2022-12-23T17:57:26.103Z,132.52
2022-12-23T17:59:53.487Z,133.70
2022-12-23T18:02:23.405Z,128.82
2022-12-23T18:04:50.739Z,134.70
2022-12-23T18:07:17.639Z,132.43
2022-12-23T18:09:44.335Z,134.75
2022-12-23T18:12:34.024Z,133.45
2022-12-23T18:15:01.720Z,133.98
2022-12-23T18:17:28.581Z,130.55
2022-12-23T18:19:56.077Z,130.50
2022-12-23T18:22:24.331Z,156.15
2022-12-23T18:24:56.991Z,138.65
2022-12-23T18:27:25.636Z,128.30
2022-12-23T18:29:52.409Z,131.77
2022-12-23T18:32:20.923Z,128.27
2022-12-23T18:34:48.131Z,136.18
2022-12-23T18:37:15.017Z,138.15
2022-12-23T18:39:41.782Z,139.82
2022-12-23T18:42:11.232Z,147.40
2022-12-23T18:44:37.859Z,147.32
2022-12-23T18:47:04.953Z,138.52
2022-12-23T18:49:33.899Z,140.43
2022-12-23T18:52:04.922Z,142.45
2022-12-23T18:54:31.679Z,144.90
2022-12-23T18:56:59.810Z,163.48
2022-12-23T18:59:30.149Z,161.95
2022-12-23T19:01:57.545Z,155.57
2022-12-23T19:04:24.417Z,145.73
2022-12-23T19:06:51.195Z,137.05
2022-12-23T19:09:19.427Z,139.30
2022-12-23T19:11:47.095Z,141.63
2022-12-23T19:14:13.939Z,139.93
2022-12-23T19:16:43.658Z,137.30
2022-12-23T19:19:14.281Z,135.18
2022-12-23T19:21:40.932Z,133.75
2022-12-23T19:24:07.614Z,139.77
2022-12-23T19:26:36.417Z,137.98
2022-12-23T19:29:06.159Z,139.00
2022-12-23T19:31:34.004Z,140.07
2022-12-23T19:34:01.130Z,152.25
2022-12-23T19:36:28.040Z,160.05
2022-12-23T19:38:55.728Z,159.35
2022-12-23T19:41:22.496Z,153.48
2022-12-23T19:43:49.372Z,160.40
2022-12-23T19:46:16.911Z,174.02
2022-12-23T19:48:43.972Z,161.48
2022-12-23T19:51:12.175Z,153.40
2022-12-23T19:53:39.559Z,148.95
2022-12-23T19:56:13.326Z,148.60
2022-12-23T19:58:41.462Z,147.18
2022-12-23T20:01:09.885Z,140.55
2022-12-23T20:03:37.087Z,149.07
2022-12-23T20:06:05.375Z,149.60
2022-12-23T20:08:32.440Z,145.02
2022-12-23T20:11:06.939Z,152.73
2022-12-23T20:13:34.402Z,149.73
2022-12-23T20:16:01.543Z,154.82
2022-12-23T20:18:28.227Z,148.70
2022-12-23T20:20:54.983Z,147.57
2022-12-23T20:23:22.713Z,146.80
2022-12-23T20:25:50.010Z,145.18
2022-12-23T20:28:16.801Z,144.30
2022-12-23T20:30:43.589Z,143.00
2022-12-23T20:33:10.367Z,149.48
2022-12-23T20:35:37.308Z,155.32
2022-12-23T20:38:04.152Z,151.82
2022-12-23T20:40:30.898Z,142.65
2022-12-23T20:42:58.318Z,151.30
2022-12-23T20:45:27.815Z,142.63
2022-12-23T20:47:54.513Z,142.75
2022-12-23T20:50:21.428Z,139.68
2022-12-23T20:52:48.214Z,141.68
2022-12-23T20:55:15.144Z,141.98
2022-12-23T20:57:44.069Z,141.38
2022-12-23T21:00:11.726Z,141.82
2022-12-23T21:02:38.915Z,149.52
2022-12-23T21:05:05.658Z,153.98
2022-12-23T21:07:32.434Z,146.35
2022-12-23T21:09:59.124Z,155.02
2022-12-23T21:12:28.195Z,147.05
2022-12-23T21:14:55.036Z,143.70
2022-12-23T21:17:23.711Z,139.23
2022-12-23T21:19:50.403Z,143.70
2022-12-23T21:22:17.220Z,146.75
2022-12-23T21:24:43.899Z,144.38
2022-12-23T21:27:10.584Z,140.07
2022-12-23T21:29:37.225Z,147.27
2022-12-23T21:32:04.070Z,151.50
2022-12-23T21:34:30.786Z,138.68
2022-12-23T21:36:57.631Z,147.63
2022-12-23T21:39:24.260Z,145.70
2022-12-23T21:41:51.555Z,139.10
2022-12-23T21:44:18.490Z,137.35
2022-12-23T21:46:45.279Z,139.23
2022-12-23T21:49:13.006Z,145.93
2022-12-23T21:51:41.277Z,150.27
2022-12-23T21:54:11.633Z,155.70
2022-12-23T21:56:38.699Z,148.98
2022-12-23T21:59:07.393Z,148.77
2022-12-23T22:01:34.752Z,153.20
2022-12-23T22:04:01.701Z,154.57
2022-12-23T22:06:29.917Z,161.23
2022-12-23T22:08:57.340Z,149.52
2022-12-23T22:11:25.665Z,143.82
2022-12-23T22:13:52.771Z,147.60
2022-12-23T22:16:20.874Z,154.18
2022-12-23T22:18:48.246Z,145.85
2022-12-23T22:21:16.630Z,142.90
2022-12-23T22:23:44.076Z,138.30
2022-12-23T22:26:12.467Z,148.57
2022-12-23T22:28:39.607Z,142.10
2022-12-23T22:31:20.674Z,161.30
2022-12-23T22:33:47.369Z,165.95
2022-12-23T22:36:14.920Z,163.25
2022-12-23T22:38:41.757Z,157.20
2022-12-23T22:41:09.012Z,150.60
2022-12-23T22:43:36.281Z,155.35
2022-12-23T22:46:03.579Z,157.93
2022-12-23T22:48:30.885Z,157.00
2022-12-23T22:51:05.040Z,155.07
2022-12-23T22:53:32.297Z,149.88
2022-12-23T22:56:00.109Z,148.63
2022-12-23T22:58:28.034Z,137.80
2022-12-23T23:00:55.003Z,149.20
2022-12-23T23:03:21.775Z,149.32
2022-12-23T23:06:02.830Z,141.30
2022-12-23T23:08:30.518Z,139.32
2022-12-23T23:10:58.124Z,165.35
2022-12-23T23:13:26.592Z,155.70
2022-12-23T23:15:53.418Z,140.85
2022-12-23T23:18:20.184Z,139.23
2022-12-23T23:20:47.027Z,147.02
2022-12-23T23:23:14.087Z,142.10
2022-12-23T23:25:41.461Z,143.98
2022-12-23T23:28:08.372Z,133.43
2022-12-23T23:30:36.330Z,138.32
2022-12-23T23:33:03.202Z,133.05
2022-12-23T23:35:29.866Z,124.65
2022-12-23T23:37:56.554Z,129.88
2022-12-23T23:40:23.299Z,138.85
2022-12-23T23:42:50.005Z,135.30
2022-12-23T23:45:16.711Z,129.95
2022-12-23T23:47:43.397Z,129.23
2022-12-23T23:50:10.249Z,130.85
2022-12-23T23:52:36.974Z,132.63
2022-12-23T23:55:04.485Z,137.43
2022-12-23T23:57:31.338Z,136.18
2022-12-23T23:59:58.143Z,140.48
